Home   Weather   Estonia   Tallinn   Past weeks
Flag for Estonia

Past Weather in Tallinn, Estonia — Yesterday and Last 2 Weeks

Currently: 37 °F. Passing clouds. (Weather station: Tallinn, Estonia). See more current weather

Past Weather in Tallinn — Graph

°F

Tallinn Temperature Yesterday

Maximum temperature yesterday: 61 °F (at 2:50 pm)
Minimum temperature yesterday: 41 °F (at 3:50 am)
Average temperature yesterday: 49 °F

High & Low Weather Summary for the Past Weeks

 TemperatureHumidityPressure
High61 °F (Sep 15, 1:20 pm)100% (Sep 14, 10:20 pm)30.21 "Hg (Sep 14, 10:20 pm)
Low37 °F (Sep 28, 5:50 am)51% (Sep 26, 2:20 pm)29.12 "Hg (Sep 16, 4:20 am)
Average51 °F82%29.69 "Hg
* Reported Sep 13 6:20 am — Sep 28 6:20 am, Tallinn. Weather by CustomWeather, © 2022

Note: Actual official high and low records may vary slightly from our data, if they occured in-between our weather recording intervals... More about our weather records

Tallinn Weather History for the Previous 24 Hours

Scroll right to see more
 ConditionsComfort  
Time TempWeatherWind HumidityBarometerVisibility
6:20 am
Wed, Sep 28
37 °FClear.7 mph100%29.77 "Hg10 mi
5:50 am37 °FClear.6 mph100%29.80 "Hg10 mi
5:20 am39 °FClear.8 mph100%29.80 "Hg10 mi
4:20 am41 °FClear.6 mph93%29.80 "Hg10 mi
3:50 am39 °FClear.7 mph100%29.80 "Hg10 mi
2:20 am43 °FClear.8 mph93%29.80 "Hg10 mi
1:50 am41 °FClear.8 mph93%29.80 "Hg10 mi
1:20 am41 °FClear.9 mph93%29.83 "Hg10 mi
12:50 am41 °FClear.9 mph93%29.80 "Hg10 mi
12:20 am41 °FClear.10 mph87%29.80 "Hg10 mi
11:20 pm
Tue, Sep 27
43 °FClear.8 mph87%29.80 "Hg10 mi
10:50 pm43 °FClear.9 mph93%29.80 "Hg10 mi
10:20 pm45 °FClear.9 mph87%29.80 "Hg10 mi
9:50 pm45 °FClear.8 mph87%29.80 "Hg10 mi
9:20 pm46 °FClear.8 mph82%29.80 "Hg10 mi
8:50 pm48 °FClear.9 mph82%29.80 "Hg10 mi
8:20 pm48 °FClear.8 mph82%29.80 "Hg10 mi
7:50 pm50 °FClear.9 mph76%29.80 "Hg10 mi
7:20 pm52 °FClear.10 mph77%29.80 "Hg10 mi
6:50 pm54 °FPassing clouds.12 mph72%29.77 "HgN/A
6:20 pm55 °FPassing clouds.12 mph67%29.77 "HgN/A
5:20 pm59 °FPassing clouds.13 mph59%29.77 "HgN/A
4:20 pm59 °FPassing clouds.10 mph63%29.77 "HgN/A
3:50 pm61 °FScattered clouds.12 mph59%29.77 "HgN/A
3:20 pm61 °FScattered clouds.10 mph59%29.77 "HgN/A
2:50 pm61 °FPassing clouds.8 mph59%29.77 "HgN/A
2:20 pm59 °FPassing clouds.12 mph59%29.77 "HgN/A
1:50 pm59 °FPassing clouds.14 mph63%29.77 "HgN/A
1:20 pm59 °FSunny.10 mph63%29.77 "Hg10 mi
12:50 pm59 °FSunny.10 mph63%29.77 "Hg10 mi
12:20 pm57 °FSunny.12 mph67%29.77 "Hg10 mi
11:50 am55 °FSunny.12 mph72%29.77 "Hg10 mi
11:20 am54 °FSunny.10 mph77%29.77 "Hg10 mi
10:50 am52 °FSunny.9 mph77%29.77 "Hg10 mi
10:20 am50 °FSunny.10 mph82%29.77 "Hg10 mi
9:50 am46 °FSunny.9 mph87%29.77 "Hg10 mi
9:20 am45 °FSunny.8 mph87%29.77 "Hg10 mi
8:50 am43 °FSunny.8 mph93%29.77 "Hg10 mi
8:20 am43 °FSunny.7 mph93%29.77 "Hg10 mi
7:50 am43 °FSunny.8 mph87%29.77 "Hg10 mi
7:20 am41 °FSunny.10 mph93%29.74 "Hg10 mi
Weather by CustomWeather, © 2022

See weather overview